sensor_id;sensor_type;location;lat;lon;timestamp;temperature;humidity
610;DHT22;292;48.800;9.216;2024-02-16T00:11:00;13.60;67.20
610;DHT22;292;48.800;9.216;2024-02-16T01:00:24;13.50;68.90
610;DHT22;292;48.800;9.216;2024-02-16T01:10:07;13.50;69.20
610;DHT22;292;48.800;9.216;2024-02-16T01:20:11;13.50;69.30
610;DHT22;292;48.800;9.216;2024-02-16T01:29:54;13.50;69.30
610;DHT22;292;48.800;9.216;2024-02-16T01:39:50;13.50;69.50
610;DHT22;292;48.800;9.216;2024-02-16T02:10:18;13.40;68.90
610;DHT22;292;48.800;9.216;2024-02-16T03:22:03;13.00;71.20
610;DHT22;292;48.800;9.216;2024-02-16T03:46:17;12.80;71.80
610;DHT22;292;48.800;9.216;2024-02-16T03:49:17;12.80;71.90
610;DHT22;292;48.800;9.216;2024-02-16T03:59:02;12.70;72.10
610;DHT22;292;48.800;9.216;2024-02-16T04:08:57;12.70;72.40
610;DHT22;292;48.800;9.216;2024-02-16T04:18:47;12.70;72.40
610;DHT22;292;48.800;9.216;2024-02-16T04:28:40;12.70;72.50
610;DHT22;292;48.800;9.216;2024-02-16T04:58:56;12.70;72.40
610;DHT22;292;48.800;9.216;2024-02-16T05:08:46;12.60;72.50
610;DHT22;292;48.800;9.216;2024-02-16T05:18:40;12.50;72.60
610;DHT22;292;48.800;9.216;2024-02-16T05:28:32;12.60;72.50
610;DHT22;292;48.800;9.216;2024-02-16T05:38:28;12.60;72.20
610;DHT22;292;48.800;9.216;2024-02-16T05:48:20;12.60;71.80
610;DHT22;292;48.800;9.216;2024-02-16T06:08:06;12.70;70.90
610;DHT22;292;48.800;9.216;2024-02-16T06:17:57;12.70;70.80
610;DHT22;292;48.800;9.216;2024-02-16T06:27:54;12.80;70.30
610;DHT22;292;48.800;9.216;2024-02-16T07:01:35;13.00;69.50
610;DHT22;292;48.800;9.216;2024-02-16T07:04:05;13.00;69.30
610;DHT22;292;48.800;9.216;2024-02-16T07:06:33;13.00;69.30
610;DHT22;292;48.800;9.216;2024-02-16T07:09:00;13.00;69.20
610;DHT22;292;48.800;9.216;2024-02-16T07:11:28;13.00;69.20
610;DHT22;292;48.800;9.216;2024-02-16T07:13:55;13.00;69.20
610;DHT22;292;48.800;9.216;2024-02-16T07:16:22;13.00;69.00
610;DHT22;292;48.800;9.216;2024-02-16T07:18:50;13.00;69.00
610;DHT22;292;48.800;9.216;2024-02-16T07:21:17;13.00;69.20
610;DHT22;292;48.800;9.216;2024-02-16T07:23:46;13.10;69.20
610;DHT22;292;48.800;9.216;2024-02-16T07:26:13;13.10;69.20
610;DHT22;292;48.800;9.216;2024-02-16T07:28:43;13.10;69.20
610;DHT22;292;48.800;9.216;2024-02-16T07:31:10;13.10;69.20
610;DHT22;292;48.800;9.216;2024-02-16T07:33:38;13.10;69.00
610;DHT22;292;48.800;9.216;2024-02-16T07:36:08;13.10;69.20
610;DHT22;292;48.800;9.216;2024-02-16T07:38:35;13.10;69.20
610;DHT22;292;48.800;9.216;2024-02-16T07:41:02;13.20;69.00
610;DHT22;292;48.800;9.216;2024-02-16T07:43:31;13.20;69.00
610;DHT22;292;48.800;9.216;2024-02-16T07:45:58;13.20;68.90
610;DHT22;292;48.800;9.216;2024-02-16T07:48:25;13.20;68.70
610;DHT22;292;48.800;9.216;2024-02-16T07:50:52;13.20;68.70
610;DHT22;292;48.800;9.216;2024-02-16T07:53:21;13.20;68.60
610;DHT22;292;48.800;9.216;2024-02-16T07:55:48;13.20;68.60
610;DHT22;292;48.800;9.216;2024-02-16T07:58:15;13.20;68.60
610;DHT22;292;48.800;9.216;2024-02-16T08:00:42;13.20;68.60
610;DHT22;292;48.800;9.216;2024-02-16T08:03:09;13.20;68.60
610;DHT22;292;48.800;9.216;2024-02-16T08:05:36;13.20;68.60
610;DHT22;292;48.800;9.216;2024-02-16T08:08:03;13.30;68.60
610;DHT22;292;48.800;9.216;2024-02-16T08:10:32;13.30;68.50
610;DHT22;292;48.800;9.216;2024-02-16T08:13:00;13.30;68.50
610;DHT22;292;48.800;9.216;2024-02-16T08:15:27;13.30;68.50
610;DHT22;292;48.800;9.216;2024-02-16T08:17:54;13.40;68.50
610;DHT22;292;48.800;9.216;2024-02-16T08:20:21;13.40;68.30
610;DHT22;292;48.800;9.216;2024-02-16T08:22:48;13.50;68.20
610;DHT22;292;48.800;9.216;2024-02-16T08:25:15;13.50;68.00
610;DHT22;292;48.800;9.216;2024-02-16T08:27:44;13.60;68.00
610;DHT22;292;48.800;9.216;2024-02-16T08:30:11;13.70;67.90
610;DHT22;292;48.800;9.216;2024-02-16T08:32:38;13.80;67.60
610;DHT22;292;48.800;9.216;2024-02-16T08:35:06;13.90;67.30
610;DHT22;292;48.800;9.216;2024-02-16T08:37:33;14.00;66.70
610;DHT22;292;48.800;9.216;2024-02-16T08:40:01;14.10;66.60
610;DHT22;292;48.800;9.216;2024-02-16T08:42:29;14.20;66.30
610;DHT22;292;48.800;9.216;2024-02-16T08:44:58;14.40;65.90
610;DHT22;292;48.800;9.216;2024-02-16T08:47:26;14.50;65.30
610;DHT22;292;48.800;9.216;2024-02-16T08:49:52;14.60;64.90
610;DHT22;292;48.800;9.216;2024-02-16T08:52:20;14.70;64.60
610;DHT22;292;48.800;9.216;2024-02-16T08:54:47;14.80;64.10
610;DHT22;292;48.800;9.216;2024-02-16T08:57:14;14.90;64.10
610;DHT22;292;48.800;9.216;2024-02-16T08:59:41;15.00;63.80
610;DHT22;292;48.800;9.216;2024-02-16T09:02:11;15.10;63.10
610;DHT22;292;48.800;9.216;2024-02-16T09:04:38;15.30;62.70
610;DHT22;292;48.800;9.216;2024-02-16T09:07:06;15.50;62.30
610;DHT22;292;48.800;9.216;2024-02-16T09:09:35;15.60;61.70
610;DHT22;292;48.800;9.216;2024-02-16T09:12:03;15.80;61.20
610;DHT22;292;48.800;9.216;2024-02-16T09:14:30;16.10;60.50
610;DHT22;292;48.800;9.216;2024-02-16T09:16:57;16.40;59.80
610;DHT22;292;48.800;9.216;2024-02-16T09:19:26;16.80;59.20
610;DHT22;292;48.800;9.216;2024-02-16T09:21:53;17.30;57.80
610;DHT22;292;48.800;9.216;2024-02-16T09:24:20;17.90;56.50
610;DHT22;292;48.800;9.216;2024-02-16T09:26:48;18.20;55.40
610;DHT22;292;48.800;9.216;2024-02-16T09:29:15;18.50;54.50
610;DHT22;292;48.800;9.216;2024-02-16T09:31:45;18.70;53.80
610;DHT22;292;48.800;9.216;2024-02-16T09:34:16;18.70;53.30
610;DHT22;292;48.800;9.216;2024-02-16T09:36:45;18.80;52.80
610;DHT22;292;48.800;9.216;2024-02-16T09:39:14;18.70;52.10
610;DHT22;292;48.800;9.216;2024-02-16T09:41:42;18.70;52.00
610;DHT22;292;48.800;9.216;2024-02-16T09:44:09;18.60;51.80
610;DHT22;292;48.800;9.216;2024-02-16T09:46:37;18.50;52.00
610;DHT22;292;48.800;9.216;2024-02-16T09:49:05;18.40;52.00
610;DHT22;292;48.800;9.216;2024-02-16T09:51:36;18.50;52.10
610;DHT22;292;48.800;9.216;2024-02-16T09:54:05;18.50;52.10
610;DHT22;292;48.800;9.216;2024-02-16T09:56:32;18.70;51.80
610;DHT22;292;48.800;9.216;2024-02-16T09:59:00;18.80;51.70
610;DHT22;292;48.800;9.216;2024-02-16T10:01:28;19.00;51.30
610;DHT22;292;48.800;9.216;2024-02-16T10:04:05;19.10;50.90
610;DHT22;292;48.800;9.216;2024-02-16T10:06:33;19.20;50.80
610;DHT22;292;48.800;9.216;2024-02-16T10:09:22;19.20;50.50
610;DHT22;292;48.800;9.216;2024-02-16T10:11:49;19.30;50.40
610;DHT22;292;48.800;9.216;2024-02-16T10:14:19;19.40;50.20
610;DHT22;292;48.800;9.216;2024-02-16T10:16:46;19.50;50.00
610;DHT22;292;48.800;9.216;2024-02-16T10:19:13;19.50;49.80
610;DHT22;292;48.800;9.216;2024-02-16T10:21:41;19.60;49.40
610;DHT22;292;48.800;9.216;2024-02-16T10:24:10;19.60;49.20
610;DHT22;292;48.800;9.216;2024-02-16T10:26:41;19.60;49.00
610;DHT22;292;48.800;9.216;2024-02-16T10:29:10;19.60;49.00
610;DHT22;292;48.800;9.216;2024-02-16T10:31:37;19.60;48.90
610;DHT22;292;48.800;9.216;2024-02-16T10:34:06;19.50;48.90
610;DHT22;292;48.800;9.216;2024-02-16T10:36:36;19.50;49.00
610;DHT22;292;48.800;9.216;2024-02-16T10:39:04;19.50;49.00
610;DHT22;292;48.800;9.216;2024-02-16T10:41:35;19.50;49.00
610;DHT22;292;48.800;9.216;2024-02-16T10:44:04;19.50;49.00
610;DHT22;292;48.800;9.216;2024-02-16T10:46:32;19.50;48.80
610;DHT22;292;48.800;9.216;2024-02-16T10:48:59;19.50;48.60
610;DHT22;292;48.800;9.216;2024-02-16T10:51:34;19.40;48.50
610;DHT22;292;48.800;9.216;2024-02-16T10:54:04;19.30;48.50
610;DHT22;292;48.800;9.216;2024-02-16T10:56:35;19.30;48.60
610;DHT22;292;48.800;9.216;2024-02-16T10:59:05;19.30;48.60
610;DHT22;292;48.800;9.216;2024-02-16T11:01:33;19.20;48.60
610;DHT22;292;48.800;9.216;2024-02-16T11:04:05;19.20;48.80
610;DHT22;292;48.800;9.216;2024-02-16T11:06:47;19.20;48.80
610;DHT22;292;48.800;9.216;2024-02-16T11:09:34;19.10;48.80
610;DHT22;292;48.800;9.216;2024-02-16T11:12:02;19.10;48.80
610;DHT22;292;48.800;9.216;2024-02-16T11:14:36;19.10;48.80
610;DHT22;292;48.800;9.216;2024-02-16T11:17:07;19.10;48.80
610;DHT22;292;48.800;9.216;2024-02-16T11:19:35;19.10;48.80
610;DHT22;292;48.800;9.216;2024-02-16T11:22:05;19.10;48.60
610;DHT22;292;48.800;9.216;2024-02-16T11:24:36;19.10;48.50
610;DHT22;292;48.800;9.216;2024-02-16T11:27:04;19.10;48.50
610;DHT22;292;48.800;9.216;2024-02-16T11:29:32;19.10;48.50
610;DHT22;292;48.800;9.216;2024-02-16T11:32:02;19.10;48.40
610;DHT22;292;48.800;9.216;2024-02-16T11:34:30;19.10;48.40
610;DHT22;292;48.800;9.216;2024-02-16T11:36:57;19.10;48.50
610;DHT22;292;48.800;9.216;2024-02-16T11:39:25;19.10;48.40
610;DHT22;292;48.800;9.216;2024-02-16T11:42:02;19.20;48.20
610;DHT22;292;48.800;9.216;2024-02-16T11:44:30;19.20;48.10
610;DHT22;292;48.800;9.216;2024-02-16T11:46:58;19.20;48.00
610;DHT22;292;48.800;9.216;2024-02-16T11:49:28;19.20;48.00
610;DHT22;292;48.800;9.216;2024-02-16T11:51:55;19.20;48.00
610;DHT22;292;48.800;9.216;2024-02-16T11:54:22;19.30;48.00
610;DHT22;292;48.800;9.216;2024-02-16T11:56:51;19.30;48.10
610;DHT22;292;48.800;9.216;2024-02-16T11:59:18;19.30;48.10
610;DHT22;292;48.800;9.216;2024-02-16T12:01:49;19.40;48.20
610;DHT22;292;48.800;9.216;2024-02-16T12:04:21;19.40;48.40
610;DHT22;292;48.800;9.216;2024-02-16T12:06:52;19.40;48.50
610;DHT22;292;48.800;9.216;2024-02-16T12:09:20;19.50;48.50
610;DHT22;292;48.800;9.216;2024-02-16T12:11:48;19.60;48.50
610;DHT22;292;48.800;9.216;2024-02-16T12:14:16;19.60;48.40
610;DHT22;292;48.800;9.216;2024-02-16T12:16:46;19.70;48.20
610;DHT22;292;48.800;9.216;2024-02-16T12:19:13;19.70;48.10
610;DHT22;292;48.800;9.216;2024-02-16T12:21:40;19.80;48.10
610;DHT22;292;48.800;9.216;2024-02-16T12:24:09;19.80;48.00
610;DHT22;292;48.800;9.216;2024-02-16T12:26:36;19.80;48.00
610;DHT22;292;48.800;9.216;2024-02-16T12:29:03;19.90;48.00
610;DHT22;292;48.800;9.216;2024-02-16T12:31:30;19.90;48.00
610;DHT22;292;48.800;9.216;2024-02-16T12:33:57;20.00;48.00
610;DHT22;292;48.800;9.216;2024-02-16T12:36:24;20.00;48.00
610;DHT22;292;48.800;9.216;2024-02-16T12:38:53;20.00;47.80
610;DHT22;292;48.800;9.216;2024-02-16T12:41:22;20.00;47.80
610;DHT22;292;48.800;9.216;2024-02-16T12:43:49;20.00;47.70
610;DHT22;292;48.800;9.216;2024-02-16T12:46:16;20.10;47.70
610;DHT22;292;48.800;9.216;2024-02-16T12:48:43;20.10;47.60
610;DHT22;292;48.800;9.216;2024-02-16T12:51:10;20.00;47.70
610;DHT22;292;48.800;9.216;2024-02-16T12:53:37;20.00;47.70
610;DHT22;292;48.800;9.216;2024-02-16T12:56:07;20.00;47.70
610;DHT22;292;48.800;9.216;2024-02-16T12:58:36;20.00;47.80
610;DHT22;292;48.800;9.216;2024-02-16T13:01:03;20.00;48.10
610;DHT22;292;48.800;9.216;2024-02-16T13:03:32;20.00;48.40
610;DHT22;292;48.800;9.216;2024-02-16T13:05:59;20.00;48.60
610;DHT22;292;48.800;9.216;2024-02-16T13:08:26;19.90;48.90
610;DHT22;292;48.800;9.216;2024-02-16T13:10:54;19.90;49.20
610;DHT22;292;48.800;9.216;2024-02-16T13:13:21;19.90;49.30
610;DHT22;292;48.800;9.216;2024-02-16T13:15:49;19.90;49.60
610;DHT22;292;48.800;9.216;2024-02-16T13:18:17;19.90;49.80
610;DHT22;292;48.800;9.216;2024-02-16T13:20:44;19.80;50.10
610;DHT22;292;48.800;9.216;2024-02-16T13:23:12;19.80;50.20
610;DHT22;292;48.800;9.216;2024-02-16T13:25:39;19.80;50.40
610;DHT22;292;48.800;9.216;2024-02-16T13:28:06;19.80;50.50
610;DHT22;292;48.800;9.216;2024-02-16T13:30:33;19.80;50.80
610;DHT22;292;48.800;9.216;2024-02-16T13:33:02;19.70;50.90
610;DHT22;292;48.800;9.216;2024-02-16T13:35:29;19.70;51.00
610;DHT22;292;48.800;9.216;2024-02-16T13:37:56;19.70;51.40
610;DHT22;292;48.800;9.216;2024-02-16T13:40:23;19.70;51.60
610;DHT22;292;48.800;9.216;2024-02-16T13:42:50;19.70;51.70
610;DHT22;292;48.800;9.216;2024-02-16T13:45:17;19.70;51.80
610;DHT22;292;48.800;9.216;2024-02-16T13:47:44;19.70;52.00
610;DHT22;292;48.800;9.216;2024-02-16T13:50:13;19.60;52.10
610;DHT22;292;48.800;9.216;2024-02-16T13:52:40;19.60;52.20
610;DHT22;292;48.800;9.216;2024-02-16T13:55:08;19.60;52.40
610;DHT22;292;48.800;9.216;2024-02-16T13:57:35;19.60;52.50
610;DHT22;292;48.800;9.216;2024-02-16T14:00:07;19.60;52.60
610;DHT22;292;48.800;9.216;2024-02-16T14:02:36;19.60;52.80
610;DHT22;292;48.800;9.216;2024-02-16T14:05:03;19.60;52.80
610;DHT22;292;48.800;9.216;2024-02-16T14:07:32;19.60;52.90
610;DHT22;292;48.800;9.216;2024-02-16T14:09:59;19.60;52.90
610;DHT22;292;48.800;9.216;2024-02-16T14:12:27;19.60;53.00
610;DHT22;292;48.800;9.216;2024-02-16T14:14:55;19.50;53.00
610;DHT22;292;48.800;9.216;2024-02-16T14:17:22;19.50;53.20
610;DHT22;292;48.800;9.216;2024-02-16T14:19:49;19.50;53.20
610;DHT22;292;48.800;9.216;2024-02-16T14:22:17;19.50;53.20
610;DHT22;292;48.800;9.216;2024-02-16T14:24:45;19.50;53.30
610;DHT22;292;48.800;9.216;2024-02-16T14:27:12;19.50;53.30
610;DHT22;292;48.800;9.216;2024-02-16T14:29:39;19.50;53.40
610;DHT22;292;48.800;9.216;2024-02-16T14:32:06;19.50;53.40
610;DHT22;292;48.800;9.216;2024-02-16T14:34:34;19.50;53.60
610;DHT22;292;48.800;9.216;2024-02-16T14:37:01;19.50;53.70
610;DHT22;292;48.800;9.216;2024-02-16T14:39:28;19.50;53.80
610;DHT22;292;48.800;9.216;2024-02-16T14:41:56;19.40;53.80
610;DHT22;292;48.800;9.216;2024-02-16T14:44:23;19.40;54.00
610;DHT22;292;48.800;9.216;2024-02-16T14:46:50;19.40;54.10
610;DHT22;292;48.800;9.216;2024-02-16T14:49:17;19.40;54.20
610;DHT22;292;48.800;9.216;2024-02-16T14:51:46;19.40;54.20
610;DHT22;292;48.800;9.216;2024-02-16T14:54:14;19.40;54.40
610;DHT22;292;48.800;9.216;2024-02-16T14:56:41;19.40;54.50
610;DHT22;292;48.800;9.216;2024-02-16T14:59:10;19.40;54.50
610;DHT22;292;48.800;9.216;2024-02-16T15:01:37;19.40;54.40
610;DHT22;292;48.800;9.216;2024-02-16T15:04:04;19.40;54.20
610;DHT22;292;48.800;9.216;2024-02-16T15:06:31;19.40;54.20
610;DHT22;292;48.800;9.216;2024-02-16T15:09:02;19.40;54.20
610;DHT22;292;48.800;9.216;2024-02-16T15:11:30;19.40;54.20
610;DHT22;292;48.800;9.216;2024-02-16T15:13:58;19.30;54.40
610;DHT22;292;48.800;9.216;2024-02-16T15:16:27;19.30;54.50
610;DHT22;292;48.800;9.216;2024-02-16T15:18:54;19.20;54.80
610;DHT22;292;48.800;9.216;2024-02-16T15:21:21;19.20;54.90
610;DHT22;292;48.800;9.216;2024-02-16T15:23:48;19.10;55.20
610;DHT22;292;48.800;9.216;2024-02-16T15:26:15;19.10;55.60
610;DHT22;292;48.800;9.216;2024-02-16T15:28:42;19.00;55.80
610;DHT22;292;48.800;9.216;2024-02-16T15:31:11;19.00;56.10
610;DHT22;292;48.800;9.216;2024-02-16T15:33:40;19.00;56.50
610;DHT22;292;48.800;9.216;2024-02-16T15:36:08;18.90;56.60
610;DHT22;292;48.800;9.216;2024-02-16T15:38:35;18.90;56.90
610;DHT22;292;48.800;9.216;2024-02-16T15:41:03;18.80;57.00
610;DHT22;292;48.800;9.216;2024-02-16T15:43:30;18.80;57.20
610;DHT22;292;48.800;9.216;2024-02-16T15:45:57;18.70;57.40
610;DHT22;292;48.800;9.216;2024-02-16T15:48:24;18.70;57.60
610;DHT22;292;48.800;9.216;2024-02-16T15:50:52;18.70;57.70
610;DHT22;292;48.800;9.216;2024-02-16T15:53:20;18.70;57.80
610;DHT22;292;48.800;9.216;2024-02-16T15:55:47;18.60;58.00
610;DHT22;292;48.800;9.216;2024-02-16T15:58:14;18.60;58.10
610;DHT22;292;48.800;9.216;2024-02-16T16:28:33;18.20;59.70
610;DHT22;292;48.800;9.216;2024-02-16T16:40:56;18.20;60.20
610;DHT22;292;48.800;9.216;2024-02-16T16:46:47;18.10;60.50
610;DHT22;292;48.800;9.216;2024-02-16T17:03:41;17.90;61.10
610;DHT22;292;48.800;9.216;2024-02-16T18:27:07;16.90;69.20
610;DHT22;292;48.800;9.216;2024-02-16T18:36:48;16.90;69.80
610;DHT22;292;48.800;9.216;2024-02-16T19:36:24;16.60;72.50
610;DHT22;292;48.800;9.216;2024-02-16T19:46:07;16.60;72.80
610;DHT22;292;48.800;9.216;2024-02-16T20:17:32;16.30;74.40
610;DHT22;292;48.800;9.216;2024-02-16T20:20:01;16.30;74.50
610;DHT22;292;48.800;9.216;2024-02-16T20:22:32;16.30;74.80
610;DHT22;292;48.800;9.216;2024-02-16T20:25:00;16.30;75.10
610;DHT22;292;48.800;9.216;2024-02-16T20:27:32;16.30;75.40
610;DHT22;292;48.800;9.216;2024-02-16T20:30:13;16.20;75.70
610;DHT22;292;48.800;9.216;2024-02-16T20:32:50;16.20;76.00
610;DHT22;292;48.800;9.216;2024-02-16T20:35:29;16.20;76.20
610;DHT22;292;48.800;9.216;2024-02-16T20:37:56;16.20;76.40
610;DHT22;292;48.800;9.216;2024-02-16T20:40:23;16.20;76.50
610;DHT22;292;48.800;9.216;2024-02-16T20:42:52;16.20;76.70
610;DHT22;292;48.800;9.216;2024-02-16T20:45:19;16.20;76.80
610;DHT22;292;48.800;9.216;2024-02-16T20:47:47;16.20;77.00
610;DHT22;292;48.800;9.216;2024-02-16T20:50:14;16.20;77.00
610;DHT22;292;48.800;9.216;2024-02-16T20:52:42;16.20;77.10
610;DHT22;292;48.800;9.216;2024-02-16T20:55:09;16.20;77.30
610;DHT22;292;48.800;9.216;2024-02-16T20:57:36;16.10;77.40
610;DHT22;292;48.800;9.216;2024-02-16T21:00:04;16.10;77.40
610;DHT22;292;48.800;9.216;2024-02-16T21:06:28;16.10;77.80
610;DHT22;292;48.800;9.216;2024-02-16T21:16:18;16.00;78.10
610;DHT22;292;48.800;9.216;2024-02-16T21:26:14;15.90;78.60
610;DHT22;292;48.800;9.216;2024-02-16T23:18:30;15.30;83.80
610;DHT22;292;48.800;9.216;2024-02-16T23:41:32;15.10;85.20
610;DHT22;292;48.800;9.216;2024-02-16T23:43:59;15.10;85.40
610;DHT22;292;48.800;9.216;2024-02-16T23:46:27;15.10;85.50
610;DHT22;292;48.800;9.216;2024-02-16T23:48:54;15.10;85.70
610;DHT22;292;48.800;9.216;2024-02-16T23:51:22;15.10;85.80
610;DHT22;292;48.800;9.216;2024-02-16T23:53:50;15.10;85.80
610;DHT22;292;48.800;9.216;2024-02-16T23:56:17;15.10;86.00
610;DHT22;292;48.800;9.216;2024-02-16T23:58:45;15.10;86.00
